sensor_id;sensor_type;location;lat;lon;timestamp;P1;durP1;ratioP1;P2;durP2;ratioP2
12459;SDS011;6295;49.452;8.466;2024-03-17T09:14:10;6.20;;;5.60;;
12459;SDS011;6295;49.452;8.466;2024-03-17T09:18:12;7.70;;;6.07;;
12459;SDS011;6295;49.452;8.466;2024-03-17T09:22:14;6.77;;;6.07;;
12459;SDS011;6295;49.452;8.466;2024-03-17T09:26:16;7.17;;;5.90;;
12459;SDS011;6295;49.452;8.466;2024-03-17T09:30:20;6.83;;;5.97;;
12459;SDS011;6295;49.452;8.466;2024-03-17T09:34:22;6.70;;;6.00;;
12459;SDS011;6295;49.452;8.466;2024-03-17T09:38:24;7.13;;;5.67;;
12459;SDS011;6295;49.452;8.466;2024-03-17T09:42:27;6.00;;;5.37;;
12459;SDS011;6295;49.452;8.466;2024-03-17T09:46:30;7.97;;;6.37;;
12459;SDS011;6295;49.452;8.466;2024-03-17T09:50:32;7.07;;;6.37;;
12459;SDS011;6295;49.452;8.466;2024-03-17T09:54:35;6.20;;;5.50;;
12459;SDS011;6295;49.452;8.466;2024-03-17T09:58:37;8.67;;;6.70;;
12459;SDS011;6295;49.452;8.466;2024-03-17T10:02:44;7.93;;;6.80;;
12459;SDS011;6295;49.452;8.466;2024-03-17T10:06:47;7.20;;;6.27;;
12459;SDS011;6295;49.452;8.466;2024-03-17T10:10:52;7.13;;;6.40;;
12459;SDS011;6295;49.452;8.466;2024-03-17T10:14:57;9.43;;;6.57;;
12459;SDS011;6295;49.452;8.466;2024-03-17T10:19:09;7.30;;;6.27;;
12459;SDS011;6295;49.452;8.466;2024-03-17T10:23:13;8.70;;;7.27;;
12459;SDS011;6295;49.452;8.466;2024-03-17T10:27:19;8.97;;;6.90;;
12459;SDS011;6295;49.452;8.466;2024-03-17T10:31:21;7.97;;;7.10;;
12459;SDS011;6295;49.452;8.466;2024-03-17T10:35:29;7.57;;;6.80;;
12459;SDS011;6295;49.452;8.466;2024-03-17T10:39:33;8.83;;;6.67;;
12459;SDS011;6295;49.452;8.466;2024-03-17T10:43:36;8.63;;;7.67;;
12459;SDS011;6295;49.452;8.466;2024-03-17T10:47:41;9.17;;;7.70;;
12459;SDS011;6295;49.452;8.466;2024-03-17T10:51:49;7.80;;;6.90;;
12459;SDS011;6295;49.452;8.466;2024-03-17T10:56:02;7.47;;;6.70;;
12459;SDS011;6295;49.452;8.466;2024-03-17T11:00:09;7.70;;;6.90;;
12459;SDS011;6295;49.452;8.466;2024-03-17T11:04:13;7.43;;;6.27;;
12459;SDS011;6295;49.452;8.466;2024-03-17T11:08:17;7.47;;;6.67;;
12459;SDS011;6295;49.452;8.466;2024-03-17T11:16:43;8.23;;;7.00;;
12459;SDS011;6295;49.452;8.466;2024-03-17T11:20:55;10.37;;;7.50;;
12459;SDS011;6295;49.452;8.466;2024-03-17T11:25:05;8.37;;;7.47;;
12459;SDS011;6295;49.452;8.466;2024-03-17T11:29:38;8.83;;;7.40;;
12459;SDS011;6295;49.452;8.466;2024-03-17T11:33:46;10.80;;;7.53;;
12459;SDS011;6295;49.452;8.466;2024-03-17T11:37:50;8.47;;;6.63;;
12459;SDS011;6295;49.452;8.466;2024-03-17T11:41:54;8.37;;;6.97;;
12459;SDS011;6295;49.452;8.466;2024-03-17T11:45:57;7.23;;;6.53;;
12459;SDS011;6295;49.452;8.466;2024-03-17T11:50:02;7.13;;;6.43;;
12459;SDS011;6295;49.452;8.466;2024-03-17T11:54:05;7.10;;;6.40;;
12459;SDS011;6295;49.452;8.466;2024-03-17T11:58:19;7.53;;;6.53;;
12459;SDS011;6295;49.452;8.466;2024-03-17T12:02:24;9.03;;;6.70;;
12459;SDS011;6295;49.452;8.466;2024-03-17T12:06:27;8.00;;;6.10;;
12459;SDS011;6295;49.452;8.466;2024-03-17T12:10:28;9.57;;;6.10;;
12459;SDS011;6295;49.452;8.466;2024-03-17T12:14:32;6.97;;;5.77;;
12459;SDS011;6295;49.452;8.466;2024-03-17T12:18:35;6.73;;;5.90;;
12459;SDS011;6295;49.452;8.466;2024-03-17T12:22:46;6.50;;;5.50;;
12459;SDS011;6295;49.452;8.466;2024-03-17T12:26:56;6.43;;;5.70;;
12459;SDS011;6295;49.452;8.466;2024-03-17T12:31:03;5.60;;;5.00;;
12459;SDS011;6295;49.452;8.466;2024-03-17T12:35:11;6.27;;;5.67;;
12459;SDS011;6295;49.452;8.466;2024-03-17T12:39:19;6.17;;;5.03;;
12459;SDS011;6295;49.452;8.466;2024-03-17T12:43:26;6.73;;;5.10;;
12459;SDS011;6295;49.452;8.466;2024-03-17T12:47:32;9.07;;;5.40;;
12459;SDS011;6295;49.452;8.466;2024-03-17T12:51:39;6.87;;;5.57;;
12459;SDS011;6295;49.452;8.466;2024-03-17T12:55:52;7.53;;;5.13;;
12459;SDS011;6295;49.452;8.466;2024-03-17T13:00:16;6.57;;;5.40;;
12459;SDS011;6295;49.452;8.466;2024-03-17T13:04:43;6.37;;;5.53;;
12459;SDS011;6295;49.452;8.466;2024-03-17T13:08:50;6.80;;;5.60;;
12459;SDS011;6295;49.452;8.466;2024-03-17T13:12:58;6.30;;;5.30;;
12459;SDS011;6295;49.452;8.466;2024-03-17T13:17:04;6.13;;;5.37;;
12459;SDS011;6295;49.452;8.466;2024-03-17T13:21:21;5.57;;;4.93;;
12459;SDS011;6295;49.452;8.466;2024-03-17T13:25:27;6.20;;;4.80;;
12459;SDS011;6295;49.452;8.466;2024-03-17T13:29:35;6.20;;;4.87;;
12459;SDS011;6295;49.452;8.466;2024-03-17T13:33:39;5.30;;;4.50;;
12459;SDS011;6295;49.452;8.466;2024-03-17T13:37:48;5.57;;;5.07;;
12459;SDS011;6295;49.452;8.466;2024-03-17T13:41:54;6.17;;;5.10;;
12459;SDS011;6295;49.452;8.466;2024-03-17T13:45:57;5.40;;;4.90;;
12459;SDS011;6295;49.452;8.466;2024-03-17T13:50:00;5.97;;;4.97;;
12459;SDS011;6295;49.452;8.466;2024-03-17T13:54:07;5.57;;;4.83;;
12459;SDS011;6295;49.452;8.466;2024-03-17T13:58:10;5.00;;;4.33;;
12459;SDS011;6295;49.452;8.466;2024-03-17T14:02:12;4.93;;;4.40;;
12459;SDS011;6295;49.452;8.466;2024-03-17T14:06:14;4.60;;;4.07;;
12459;SDS011;6295;49.452;8.466;2024-03-17T14:10:19;4.70;;;4.20;;
12459;SDS011;6295;49.452;8.466;2024-03-17T14:14:22;4.43;;;4.00;;
12459;SDS011;6295;49.452;8.466;2024-03-17T14:18:24;12.20;;;9.10;;
12459;SDS011;6295;49.452;8.466;2024-03-17T14:22:28;9.63;;;6.67;;
12459;SDS011;6295;49.452;8.466;2024-03-17T14:26:32;7.53;;;5.13;;
12459;SDS011;6295;49.452;8.466;2024-03-17T14:30:35;5.87;;;5.20;;
12459;SDS011;6295;49.452;8.466;2024-03-17T14:34:37;5.73;;;4.60;;
12459;SDS011;6295;49.452;8.466;2024-03-17T14:38:39;5.00;;;4.20;;
12459;SDS011;6295;49.452;8.466;2024-03-17T14:42:44;5.50;;;4.33;;
12459;SDS011;6295;49.452;8.466;2024-03-17T14:46:46;4.73;;;4.10;;
12459;SDS011;6295;49.452;8.466;2024-03-17T14:50:51;5.43;;;4.87;;
12459;SDS011;6295;49.452;8.466;2024-03-17T14:54:54;5.33;;;4.27;;
12459;SDS011;6295;49.452;8.466;2024-03-17T14:59:03;5.97;;;4.10;;
12459;SDS011;6295;49.452;8.466;2024-03-17T15:03:08;4.13;;;3.73;;
12459;SDS011;6295;49.452;8.466;2024-03-17T15:07:15;4.90;;;3.80;;
12459;SDS011;6295;49.452;8.466;2024-03-17T15:11:19;4.87;;;4.03;;
12459;SDS011;6295;49.452;8.466;2024-03-17T15:15:26;4.60;;;3.53;;
12459;SDS011;6295;49.452;8.466;2024-03-17T15:19:31;4.27;;;3.60;;
12459;SDS011;6295;49.452;8.466;2024-03-17T15:23:42;3.80;;;3.40;;
12459;SDS011;6295;49.452;8.466;2024-03-17T15:27:46;5.27;;;3.30;;
12459;SDS011;6295;49.452;8.466;2024-03-17T15:31:54;3.97;;;3.53;;
12459;SDS011;6295;49.452;8.466;2024-03-17T15:35:58;3.00;;;2.70;;
12459;SDS011;6295;49.452;8.466;2024-03-17T15:40:05;3.87;;;3.30;;
12459;SDS011;6295;49.452;8.466;2024-03-17T15:44:16;4.40;;;3.23;;
12459;SDS011;6295;49.452;8.466;2024-03-17T15:48:25;4.43;;;3.07;;
12459;SDS011;6295;49.452;8.466;2024-03-17T15:52:28;4.37;;;3.10;;
12459;SDS011;6295;49.452;8.466;2024-03-17T15:56:34;3.40;;;2.87;;
12459;SDS011;6295;49.452;8.466;2024-03-17T16:00:36;3.60;;;3.10;;
12459;SDS011;6295;49.452;8.466;2024-03-17T16:04:40;3.57;;;2.70;;
12459;SDS011;6295;49.452;8.466;2024-03-17T16:08:44;2.87;;;2.50;;
12459;SDS011;6295;49.452;8.466;2024-03-17T16:12:47;2.77;;;2.50;;
12459;SDS011;6295;49.452;8.466;2024-03-17T16:16:50;4.07;;;2.40;;
12459;SDS011;6295;49.452;8.466;2024-03-17T16:21:02;2.83;;;2.30;;
12459;SDS011;6295;49.452;8.466;2024-03-17T16:25:06;3.27;;;2.10;;
12459;SDS011;6295;49.452;8.466;2024-03-17T16:29:10;6.57;;;2.70;;
12459;SDS011;6295;49.452;8.466;2024-03-17T16:33:14;6.37;;;2.70;;
12459;SDS011;6295;49.452;8.466;2024-03-17T16:37:19;5.67;;;2.63;;
12459;SDS011;6295;49.452;8.466;2024-03-17T16:41:21;10.17;;;2.70;;
12459;SDS011;6295;49.452;8.466;2024-03-17T16:45:25;3.23;;;2.10;;
12459;SDS011;6295;49.452;8.466;2024-03-17T16:49:29;3.27;;;2.07;;
12459;SDS011;6295;49.452;8.466;2024-03-17T16:53:33;2.50;;;2.30;;
12459;SDS011;6295;49.452;8.466;2024-03-17T16:57:37;6.57;;;2.57;;
12459;SDS011;6295;49.452;8.466;2024-03-17T17:01:40;4.53;;;2.37;;
12459;SDS011;6295;49.452;8.466;2024-03-17T17:05:42;4.67;;;2.57;;
12459;SDS011;6295;49.452;8.466;2024-03-17T17:09:45;5.57;;;2.60;;
12459;SDS011;6295;49.452;8.466;2024-03-17T17:13:48;2.63;;;2.27;;
12459;SDS011;6295;49.452;8.466;2024-03-17T17:17:50;4.30;;;2.37;;
12459;SDS011;6295;49.452;8.466;2024-03-17T17:21:57;2.80;;;2.37;;
12459;SDS011;6295;49.452;8.466;2024-03-17T17:26:03;3.87;;;2.23;;
12459;SDS011;6295;49.452;8.466;2024-03-17T17:30:07;7.17;;;2.50;;
12459;SDS011;6295;49.452;8.466;2024-03-17T17:34:11;5.37;;;2.30;;
12459;SDS011;6295;49.452;8.466;2024-03-17T17:38:16;3.90;;;2.20;;
12459;SDS011;6295;49.452;8.466;2024-03-17T17:42:22;4.60;;;2.13;;
12459;SDS011;6295;49.452;8.466;2024-03-17T17:46:24;5.90;;;2.03;;
12459;SDS011;6295;49.452;8.466;2024-03-17T17:50:28;3.57;;;2.40;;
12459;SDS011;6295;49.452;8.466;2024-03-17T17:54:30;4.30;;;2.30;;
